Time;durP1;ratioP1;P1;durP2;ratioP2;P2;SDS_P1;SDS_P2;PMS_P1;PMS_P2;Temp;Humidity;BMP_temperature;BMP_pressure;BME280_temperature;BME280_humidity;BME280_pressure;Samples;Min_cycle;Max_cycle;Signal;HPM_P1;HPM_P2
2022/09/30 00:01:31;;;;;;;1.60;1.33;;;17.00;82.20;;;;;;10904445;32;20035;-72
2022/09/30 00:07:33;;;;;;;2.15;1.75;;;16.90;82.40;;;;;;10910475;32;20027;-72
2022/09/30 00:13:37;;;;;;;2.05;1.58;;;16.90;82.30;;;;;;10910295;32;20027;-72
2022/09/30 00:19:39;;;;;;;1.60;1.30;;;17.00;82.40;;;;;;10910160;32;20035;-72
2022/09/30 00:25:41;;;;;;;1.58;1.20;;;17.00;82.50;;;;;;10905911;32;20027;-72
2022/09/30 00:31:43;;;;;;;1.60;1.37;;;16.90;82.60;;;;;;10896207;32;20050;-72
2022/09/30 00:37:45;;;;;;;1.83;1.23;;;16.90;82.70;;;;;;10909467;32;20400;-72
2022/09/30 00:43:53;;;;;;;1.58;1.35;;;16.90;82.70;;;;;;10909330;32;20399;-72
2022/09/30 00:50:09;;;;;;;2.83;1.00;;;16.90;82.60;;;;;;10909074;32;20024;-72
2022/09/30 00:56:50;;;;;;;1.75;1.30;;;16.90;82.70;;;;;;10909128;32;20391;-72
2022/09/30 01:02:53;;;;;;;1.17;1.05;;;16.90;82.80;;;;;;10904385;32;20343;-72
2022/09/30 01:08:57;;;;;;;1.10;1.00;;;16.90;82.70;;;;;;10907752;32;20320;-72
2022/09/30 01:15:00;;;;;;;2.53;1.73;;;16.80;82.60;;;;;;10907698;32;20058;-72
2022/09/30 01:21:23;;;;;;;0.93;0.88;;;16.80;82.60;;;;;;10907888;32;20027;-72
2022/09/30 01:28:13;;;;;;;1.00;0.62;;;16.80;82.60;;;;;;10907712;32;20027;-72
2022/09/30 01:34:24;;;;;;;1.20;1.10;;;16.80;82.60;;;;;;10756762;32;20021;-74
2022/09/30 01:40:39;;;;;;;1.20;1.10;;;16.70;82.60;;;;;;10753430;33;20040;-72
2022/09/30 01:46:48;;;;;;;1.12;1.02;;;16.70;82.60;;;;;;10755090;33;20025;-72
2022/09/30 01:53:37;;;;;;;3.15;1.70;;;16.70;82.80;;;;;;10754913;33;20028;-72
2022/09/30 02:00:18;;;;;;;1.12;1.02;;;16.70;82.70;;;;;;10754675;33;20349;-72
2022/09/30 02:06:27;;;;;;;1.10;1.00;;;16.60;82.70;;;;;;10766837;32;20036;-72
2022/09/30 02:12:32;;;;;;;;;;;16.60;82.90;;;;;;10906438;32;20024;-71
2022/09/30 02:18:41;;;;;;;2.15;1.60;;;16.50;82.70;;;;;;10906496;32;19937;-72
2022/09/30 02:24:46;;;;;;;2.43;1.47;;;16.30;82.70;;;;;;10905175;32;20023;-72
2022/09/30 02:30:51;;;;;;;1.40;1.27;;;16.20;82.90;;;;;;10905528;32;20050;-73
2022/09/30 02:37:12;;;;;;;1.15;1.05;;;16.20;82.90;;;;;;10905299;32;20061;-73
2022/09/30 02:43:17;;;;;;;3.42;1.45;;;16.30;82.90;;;;;;10905041;32;20027;-73
2022/09/30 02:49:44;;;;;;;1.60;1.33;;;16.30;82.90;;;;;;10904962;32;20046;-73
2022/09/30 02:56:27;;;;;;;1.23;1.12;;;16.30;82.80;;;;;;10904882;32;20347;-74
2022/09/30 03:02:30;;;;;;;0.90;0.90;;;16.40;82.80;;;;;;10904643;32;20011;-74
2022/09/30 03:08:32;;;;;;;1.60;1.35;;;16.40;82.90;;;;;;10904384;32;20054;-73
2022/09/30 03:15:28;;;;;;;2.47;1.25;;;16.30;83.00;;;;;;10904423;32;20020;-73
2022/09/30 03:22:09;;;;;;;1.40;1.30;;;16.40;82.80;;;;;;10753767;33;20459;-74
2022/09/30 03:28:31;;;;;;;1.20;1.10;;;16.30;82.90;;;;;;10752872;33;20033;-73
2022/09/30 03:34:58;;;;;;;1.50;1.20;;;16.30;83.10;;;;;;10752659;33;20041;-73
2022/09/30 03:41:19;;;;;;;6.07;1.65;;;16.20;82.90;;;;;;10759812;33;20033;-74
2022/09/30 03:47:24;;;;;;;1.55;1.40;;;16.20;83.00;;;;;;10759648;33;20056;-74
2022/09/30 03:53:27;;;;;;;1.48;1.33;;;16.20;83.20;;;;;;10796567;32;20383;-73
2022/09/30 03:59:29;;;;;;;2.83;1.92;;;16.10;83.50;;;;;;10910762;32;20032;-73
2022/09/30 04:05:31;;;;;;;2.33;1.50;;;16.10;83.70;;;;;;10906864;32;20027;-73
2022/09/30 04:11:33;;;;;;;2.33;1.80;;;16.20;83.60;;;;;;10906428;32;20331;-73
2022/09/30 04:17:47;;;;;;;2.50;1.95;;;16.20;83.40;;;;;;10910218;32;20019;-73
2022/09/30 04:23:49;;;;;;;2.15;1.50;;;16.20;83.30;;;;;;10909940;32;20050;-73
2022/09/30 04:29:51;;;;;;;1.40;1.30;;;16.20;83.30;;;;;;10892334;32;20019;-72
2022/09/30 04:35:57;;;;;;;1.80;1.50;;;16.20;83.50;;;;;;10909735;32;20028;-73
2022/09/30 04:41:59;;;;;;;5.65;1.52;;;16.20;83.80;;;;;;10909226;32;20046;-73
2022/09/30 04:48:01;;;;;;;1.60;1.45;;;16.20;83.70;;;;;;10895374;32;20392;-73
2022/09/30 04:54:03;;;;;;;3.58;1.20;;;16.20;83.60;;;;;;10908981;32;20023;-73
2022/09/30 05:00:08;;;;;;;1.10;1.00;;;16.20;83.70;;;;;;10908760;32;20404;-73
2022/09/30 05:06:30;;;;;;;3.22;1.37;;;16.20;83.70;;;;;;10908642;32;20285;-73
2022/09/30 05:12:32;;;;;;;1.10;1.00;;;16.20;83.80;;;;;;10908395;32;20035;-73
2022/09/30 05:18:35;;;;;;;1.23;1.00;;;16.10;83.70;;;;;;10908141;32;20019;-73
2022/09/30 05:24:43;;;;;;;1.20;1.10;;;16.20;83.70;;;;;;10903990;32;20028;-73
2022/09/30 05:30:49;;;;;;;1.30;1.13;;;16.20;83.80;;;;;;10907724;32;20023;-73
2022/09/30 05:37:25;;;;;;;1.23;1.12;;;16.20;83.70;;;;;;10903813;32;20042;-73
2022/09/30 05:43:27;;;;;;;1.27;1.17;;;16.20;83.70;;;;;;10907165;32;20019;-73
2022/09/30 05:49:29;;;;;;;2.20;1.30;;;16.20;83.80;;;;;;10893562;32;20030;-73
2022/09/30 05:55:54;;;;;;;9.82;0.93;;;16.20;84.00;;;;;;10905625;32;20041;-73
2022/09/30 06:01:56;;;;;;;0.75;0.75;;;16.10;84.00;;;;;;10903599;32;20023;-74
2022/09/30 06:07:58;;;;;;;3.70;0.90;;;16.10;84.00;;;;;;10897750;32;20022;-73
2022/09/30 06:13:59;;;;;;;4.57;1.40;;;16.10;83.90;;;;;;10906546;27;20375;-74
2022/09/30 06:20:03;;;;;;;1.25;1.00;;;16.20;84.00;;;;;;10888176;32;20023;-74
2022/09/30 06:26:07;;;;;;;0.98;0.90;;;16.20;84.00;;;;;;10898144;32;20066;-74
2022/09/30 06:32:10;;;;;;;1.10;1.02;;;16.20;84.00;;;;;;10899639;32;20058;-74
2022/09/30 06:38:14;;;;;;;1.52;1.05;;;16.20;84.10;;;;;;10900138;32;20117;-74
2022/09/30 06:44:18;;;;;;;1.27;1.12;;;16.20;84.10;;;;;;10900909;32;20320;-74
2022/09/30 06:50:23;;;;;;;1.25;1.10;;;16.30;84.10;;;;;;10905041;32;20051;-73
2022/09/30 06:56:26;;;;;;;1.55;1.20;;;16.30;84.10;;;;;;10876773;32;20035;-73
2022/09/30 07:02:28;;;;;;;3.22;1.20;;;16.30;84.10;;;;;;10866961;32;20054;-74
2022/09/30 07:08:31;;;;;;;1.15;1.05;;;16.20;84.20;;;;;;10867122;32;20043;-73
2022/09/30 07:14:35;;;;;;;5.12;2.00;;;16.30;84.30;;;;;;10866625;32;20020;-73
2022/09/30 07:20:39;;;;;;;2.45;1.60;;;16.30;84.30;;;;;;10866782;32;20035;-73
2022/09/30 07:26:44;;;;;;;1.90;0.50;;;16.30;84.60;;;;;;10865377;32;20032;-73
2022/09/30 07:32:47;;;;;;;1.45;1.10;;;16.30;84.70;;;;;;10866824;32;20372;-74
2022/09/30 07:38:50;;;;;;;2.80;1.23;;;16.40;84.70;;;;;;10878133;32;20335;-73
2022/09/30 07:44:52;;;;;;;3.20;1.87;;;16.40;84.70;;;;;;10866743;32;20020;-74
2022/09/30 07:50:54;;;;;;;1.42;1.33;;;16.50;84.90;;;;;;10866221;32;20023;-74
2022/09/30 07:57:16;;;;;;;4.35;1.85;;;16.60;84.70;;;;;;10866332;32;20042;-74
2022/09/30 08:03:18;;;;;;;3.10;1.92;;;16.70;84.60;;;;;;10866034;32;20031;-73
2022/09/30 08:09:23;;;;;;;4.28;1.58;;;16.80;84.50;;;;;;10865946;32;20050;-74
2022/09/30 08:15:25;;;;;;;4.17;1.93;;;16.80;84.50;;;;;;10451203;32;12035895;-74
2022/09/30 08:21:28;;;;;;;1.95;1.58;;;16.80;84.60;;;;;;10788836;33;20121;-74
2022/09/30 08:27:30;;;;;;;3.10;1.83;;;16.90;84.70;;;;;;10790836;33;20067;-74
2022/09/30 08:33:32;;;;;;;3.50;1.85;;;17.00;84.60;;;;;;10795214;33;20028;-73
2022/09/30 08:39:35;;;;;;;6.93;2.25;;;17.10;84.60;;;;;;10844613;32;20024;-74
2022/09/30 08:45:53;;;;;;;3.20;2.05;;;17.10;84.50;;;;;;10905057;32;20050;-74
2022/09/30 08:51:57;;;;;;;2.25;1.75;;;17.20;84.60;;;;;;10908959;32;20031;-75
2022/09/30 08:58:03;;;;;;;3.58;1.60;;;17.30;84.50;;;;;;10908617;32;20049;-74
2022/09/30 09:04:24;;;;;;;2.12;1.40;;;17.30;84.40;;;;;;10908670;32;20030;-74
2022/09/30 09:10:34;;;;;;;2.17;1.45;;;17.50;84.30;;;;;;10908539;32;20023;-74
2022/09/30 09:16:44;;;;;;;6.22;2.28;;;17.60;84.30;;;;;;10908294;32;20397;-73
2022/09/30 09:22:49;;;;;;;5.07;1.92;;;17.60;84.30;;;;;;10907919;32;20082;-73
2022/09/30 09:29:28;;;;;;;2.25;1.73;;;17.70;84.20;;;;;;10907894;32;20016;-73
2022/09/30 09:35:59;;;;;;;1.62;1.25;;;17.70;84.00;;;;;;10866456;32;20395;-73
2022/09/30 09:42:29;;;;;;;1.73;1.52;;;17.80;83.80;;;;;;10907261;32;20062;-74
2022/09/30 09:48:34;;;;;;;2.70;1.87;;;17.80;83.70;;;;;;10907171;32;20019;-74
2022/09/30 09:54:59;;;;;;;2.50;1.40;;;18.00;83.50;;;;;;10902773;32;20015;-74
2022/09/30 10:01:29;;;;;;;1.02;1.00;;;18.20;83.20;;;;;;10906455;32;20023;-73
2022/09/30 10:07:33;;;;;;;9.73;1.65;;;18.20;83.00;;;;;;10906491;32;20016;-73
2022/09/30 10:13:38;;;;;;;2.25;1.27;;;18.30;82.90;;;;;;10906164;32;20020;-73
2022/09/30 10:19:48;;;;;;;4.25;1.55;;;18.30;83.00;;;;;;10903517;32;20426;-72
2022/09/30 10:25:57;;;;;;;4.53;1.95;;;18.30;83.00;;;;;;10889396;32;20328;-73
2022/09/30 10:32:02;;;;;;;5.87;1.62;;;18.40;82.90;;;;;;10892784;32;20036;-73
2022/09/30 10:38:04;;;;;;;4.53;2.17;;;18.40;82.90;;;;;;10862816;32;20043;-73
2022/09/30 10:44:18;;;;;;;1.83;1.17;;;18.50;82.80;;;;;;10863548;32;20046;-73
2022/09/30 10:50:26;;;;;;;3.20;1.75;;;18.50;82.70;;;;;;10897838;32;20067;-73
2022/09/30 10:56:38;;;;;;;2.03;1.37;;;18.50;82.60;;;;;;10903460;32;20045;-73
2022/09/30 11:02:58;;;;;;;6.25;1.73;;;18.50;82.60;;;;;;10878317;32;20049;-73
2022/09/30 11:09:47;;;;;;;3.45;1.75;;;18.40;82.50;;;;;;10864545;32;20067;-73
2022/09/30 11:16:03;;;;;;;1.55;1.30;;;18.40;82.60;;;;;;10862545;32;20046;-73
2022/09/30 11:22:50;;;;;;;2.12;1.52;;;18.30;82.80;;;;;;10866021;32;20395;-74
2022/09/30 11:29:13;;;;;;;2.40;1.65;;;18.30;82.80;;;;;;10861207;32;20031;-73
2022/09/30 11:35:52;;;;;;;2.65;1.80;;;18.30;83.00;;;;;;10866874;32;20028;-72
2022/09/30 11:42:02;;;;;;;4.82;2.15;;;18.30;83.20;;;;;;10866533;32;20309;-72
2022/09/30 11:48:28;;;;;;;3.33;1.65;;;18.30;83.40;;;;;;10898637;32;20035;-73
2022/09/30 11:54:30;;;;;;;4.80;1.92;;;18.30;83.40;;;;;;10903801;32;20050;-73
2022/09/30 12:00:36;;;;;;;4.72;1.67;;;18.30;83.50;;;;;;10906463;32;20066;-73
2022/09/30 12:07:45;;;;;;;2.70;1.48;;;18.30;83.50;;;;;;10910922;32;20031;-73
2022/09/30 12:13:59;;;;;;;3.05;0.82;;;18.30;83.40;;;;;;10832316;32;20048;-72
2022/09/30 12:20:15;;;;;;;2.28;1.35;;;18.30;83.40;;;;;;10832918;32;20028;-72
2022/09/30 12:26:17;;;;;;;1.90;1.17;;;18.30;83.30;;;;;;10828402;32;20058;-72
2022/09/30 12:32:43;;;;;;;2.30;1.35;;;18.30;83.40;;;;;;10832253;32;20404;-72
2022/09/30 12:39:22;;;;;;;3.35;1.48;;;18.30;83.50;;;;;;10831975;32;20035;-72
2022/09/30 12:45:47;;;;;;;2.80;1.45;;;18.20;83.60;;;;;;10870937;32;20054;-72
2022/09/30 12:51:55;;;;;;;2.37;1.40;;;18.20;83.60;;;;;;10909309;32;20031;-72
2022/09/30 12:58:42;;;;;;;2.78;1.77;;;18.20;83.70;;;;;;10908466;32;20054;-72
2022/09/30 13:04:49;;;;;;;3.97;1.55;;;18.10;83.80;;;;;;10904622;32;20023;-72
2022/09/30 13:10:59;;;;;;;1.85;1.50;;;18.10;83.90;;;;;;10908260;32;20403;-72
2022/09/30 13:17:07;;;;;;;3.97;1.87;;;18.10;84.00;;;;;;10908308;32;20050;-73
2022/09/30 13:23:41;;;;;;;3.83;1.90;;;18.10;84.10;;;;;;10894841;32;20031;-73
2022/09/30 13:29:46;;;;;;;4.20;2.15;;;18.10;84.20;;;;;;10907835;32;20404;-72
2022/09/30 13:35:51;;;;;;;2.37;1.60;;;18.10;84.30;;;;;;10907795;32;20058;-72
2022/09/30 13:42:20;;;;;;;4.22;2.03;;;18.00;84.40;;;;;;10907332;32;20383;-72
2022/09/30 13:48:29;;;;;;;5.17;1.83;;;18.00;84.40;;;;;;10907181;32;20020;-72
2022/09/30 13:54:34;;;;;;;;;;;18.10;84.30;;;;;;10907337;32;20059;-72
2022/09/30 14:01:18;;;;;;;3.95;1.67;;;18.20;84.20;;;;;;10906743;32;19930;-72
2022/09/30 14:07:29;;;;;;;5.15;1.95;;;18.10;84.20;;;;;;10902382;32;20175;-72
2022/09/30 14:13:57;;;;;;;3.87;1.52;;;18.20;84.20;;;;;;10910247;27;20065;-72
2022/09/30 14:20:18;;;;;;;4.53;1.87;;;18.10;84.20;;;;;;10905393;32;20031;-72
2022/09/30 14:26:38;;;;;;;3.45;1.60;;;18.20;84.20;;;;;;10903415;32;20047;-72
2022/09/30 14:32:52;;;;;;;2.40;1.77;;;18.20;84.30;;;;;;10901392;32;20053;-72
2022/09/30 14:38:59;;;;;;;7.78;2.35;;;18.10;84.40;;;;;;10889510;32;20027;-72
2022/09/30 14:45:04;;;;;;;2.35;1.75;;;18.10;84.60;;;;;;10892040;32;20065;-72
2022/09/30 14:51:09;;;;;;;4.43;2.10;;;18.00;84.70;;;;;;10905108;32;20019;-72
2022/09/30 14:57:16;;;;;;;2.87;1.83;;;18.00;84.80;;;;;;10904579;32;20345;-72
2022/09/30 15:03:18;;;;;;;2.70;1.85;;;17.90;84.90;;;;;;10886998;32;20058;-72
2022/09/30 15:09:33;;;;;;;3.90;2.00;;;18.00;84.80;;;;;;10904329;32;20054;-72
2022/09/30 15:15:36;;;;;;;2.67;1.95;;;18.00;84.80;;;;;;10904459;32;20327;-72
2022/09/30 15:21:38;;;;;;;1.35;1.25;;;18.00;84.70;;;;;;10904326;32;20020;-72
2022/09/30 15:27:41;;;;;;;3.15;1.87;;;17.90;84.70;;;;;;10900990;32;20019;-72
2022/09/30 15:33:44;;;;;;;2.78;1.98;;;17.90;84.70;;;;;;10908456;32;20054;-72
2022/09/30 15:46:19;;;;;;;4.62;1.60;;;17.90;84.80;;;;;;10911685;32;20020;-72
2022/09/30 15:52:45;;;;;;;2.53;1.48;;;17.90;84.80;;;;;;10907614;32;20484;-71
2022/09/30 15:59:08;;;;;;;5.35;2.53;;;17.80;84.80;;;;;;10910317;32;20023;-71
2022/09/30 16:05:10;;;;;;;3.65;2.37;;;17.80;84.80;;;;;;10910972;32;20066;-72
2022/09/30 16:11:31;;;;;;;6.15;2.70;;;17.80;84.90;;;;;;10910680;32;20019;-71
2022/09/30 16:17:36;;;;;;;3.45;1.92;;;17.80;84.90;;;;;;10910377;32;20049;-71
2022/09/30 16:23:39;;;;;;;2.65;2.08;;;17.80;84.90;;;;;;10910209;32;20027;-73
2022/09/30 16:29:41;;;;;;;2.95;2.35;;;17.80;84.90;;;;;;10909979;32;20063;-73
2022/09/30 16:35:46;;;;;;;6.93;3.03;;;17.80;85.00;;;;;;10909957;32;20046;-72
2022/09/30 16:41:49;;;;;;;5.15;3.10;;;17.70;85.20;;;;;;10909693;32;20045;-73
2022/09/30 16:47:52;;;;;;;4.68;2.78;;;17.70;85.20;;;;;;10905038;32;20059;-71
2022/09/30 16:53:54;;;;;;;3.65;2.20;;;17.70;85.30;;;;;;10909126;32;20058;-72
2022/09/30 16:59:56;;;;;;;2.75;2.08;;;17.60;85.30;;;;;;10908316;32;20046;-73
2022/09/30 17:05:59;;;;;;;5.32;2.62;;;17.70;85.30;;;;;;10895657;32;20019;-72
2022/09/30 17:12:02;;;;;;;7.28;3.28;;;17.70;85.20;;;;;;10895353;32;20059;-72
2022/09/30 17:18:06;;;;;;;4.55;2.83;;;17.70;85.20;;;;;;10908384;32;20042;-73
2022/09/30 17:24:08;;;;;;;5.62;2.90;;;17.60;85.30;;;;;;10908180;32;20047;-73
2022/09/30 17:30:11;;;;;;;4.15;1.85;;;17.60;85.30;;;;;;10908087;32;20023;-72
2022/09/30 17:36:13;;;;;;;3.55;2.70;;;17.60;85.20;;;;;;10907826;32;20028;-71
2022/09/30 17:48:38;;;;;;;3.67;2.53;;;17.60;85.20;;;;;;10907380;32;20427;-71
2022/09/30 17:54:41;;;;;;;6.20;2.55;;;17.50;85.30;;;;;;10907043;32;20293;-71
2022/09/30 18:00:43;;;;;;;2.97;1.98;;;17.50;85.30;;;;;;10906803;32;20396;-72
2022/09/30 18:06:45;;;;;;;4.90;2.08;;;17.50;85.20;;;;;;10906546;32;20038;-72
2022/09/30 18:12:48;;;;;;;2.65;1.52;;;17.50;85.40;;;;;;10906254;32;20053;-72
2022/09/30 18:18:50;;;;;;;2.95;2.00;;;17.50;85.30;;;;;;10905309;32;20015;-72
2022/09/30 18:31:18;;;;;;;2.37;1.95;;;17.50;85.10;;;;;;10905547;32;20388;-74
2022/09/30 18:37:22;;;;;;;8.83;2.67;;;17.40;85.30;;;;;;10905121;32;20023;-74
2022/09/30 18:43:24;;;;;;;3.25;1.95;;;17.40;85.30;;;;;;10905232;32;20042;-73
2022/09/30 18:49:26;;;;;;;3.12;2.20;;;17.30;85.30;;;;;;10905099;32;20319;-71
2022/09/30 18:55:29;;;;;;;3.72;1.65;;;17.30;85.40;;;;;;10904789;32;20061;-72
2022/09/30 19:01:32;;;;;;;1.92;1.62;;;17.20;85.60;;;;;;10904609;32;20193;-73
2022/09/30 19:07:34;;;;;;;2.00;1.37;;;17.20;85.60;;;;;;10904332;32;20061;-73
2022/09/30 19:13:38;;;;;;;2.67;1.92;;;17.20;85.50;;;;;;10904414;32;20065;-74
2022/09/30 19:19:40;;;;;;;2.58;2.25;;;17.20;85.50;;;;;;10904171;32;20061;-74
2022/09/30 19:25:42;;;;;;;6.00;2.15;;;17.30;85.40;;;;;;10904197;32;20410;-74
2022/09/30 19:31:45;;;;;;;4.07;2.03;;;17.20;85.50;;;;;;10904093;32;20426;-74
2022/09/30 19:37:47;;;;;;;3.28;2.40;;;17.20;85.50;;;;;;10903935;32;20024;-74
2022/09/30 19:43:50;;;;;;;3.62;2.22;;;17.20;85.40;;;;;;10903900;32;20453;-74
2022/09/30 19:49:53;;;;;;;3.12;2.42;;;17.30;85.30;;;;;;10903616;32;20028;-74
2022/09/30 19:56:11;;;;;;;5.07;3.15;;;17.30;85.30;;;;;;10903632;32;20065;-74
2022/09/30 20:02:14;;;;;;;4.97;3.22;;;17.20;85.30;;;;;;10903376;32;20392;-75
2022/09/30 20:08:17;;;;;;;4.20;2.92;;;17.20;85.40;;;;;;10903577;32;20395;-75
2022/09/30 20:20:44;;;;;;;5.80;3.83;;;17.20;85.70;;;;;;10907127;32;20384;-74
2022/09/30 20:26:49;;;;;;;7.50;4.65;;;17.20;85.60;;;;;;10910543;32;20015;-75
2022/09/30 20:32:52;;;;;;;2.62;2.08;;;17.10;85.60;;;;;;10910077;32;20055;-75
2022/09/30 20:39:01;;;;;;;6.10;3.90;;;17.20;85.70;;;;;;10905544;32;20019;-75
2022/09/30 20:45:09;;;;;;;3.62;2.67;;;17.20;85.60;;;;;;10909789;32;20019;-76
2022/09/30 20:51:16;;;;;;;2.92;2.10;;;17.10;85.70;;;;;;10909534;32;20335;-75
2022/09/30 20:57:18;;;;;;;5.75;2.97;;;17.10;85.60;;;;;;10909141;32;20058;-76
2022/09/30 21:03:32;;;;;;;2.97;2.12;;;17.10;85.70;;;;;;10908373;32;20042;-76
2022/09/30 21:09:35;;;;;;;3.33;2.58;;;17.10;85.80;;;;;;10908819;32;20016;-75
2022/09/30 21:15:38;;;;;;;2.95;2.20;;;17.00;85.80;;;;;;10895346;32;20049;-76
2022/09/30 21:21:42;;;;;;;3.80;1.92;;;17.00;85.80;;;;;;10907253;32;20031;-76
2022/09/30 21:28:21;;;;;;;3.03;2.05;;;17.10;85.80;;;;;;10908299;32;20418;-76
2022/09/30 21:34:43;;;;;;;2.47;1.67;;;17.20;85.60;;;;;;10907882;32;20356;-76
2022/09/30 21:40:46;;;;;;;4.30;2.00;;;17.20;85.60;;;;;;10907682;32;20023;-76
2022/09/30 21:46:49;;;;;;;2.00;1.70;;;17.20;85.50;;;;;;10907520;32;20020;-76
2022/09/30 21:53:08;;;;;;;2.92;2.03;;;17.20;85.50;;;;;;10907176;32;20050;-76
2022/09/30 21:59:11;;;;;;;1.52;1.42;;;17.20;85.50;;;;;;10906909;32;20050;-76
2022/09/30 22:05:19;;;;;;;1.90;1.58;;;17.20;85.50;;;;;;10905959;32;20082;-75
2022/09/30 22:11:23;;;;;;;1.95;1.62;;;17.20;85.50;;;;;;10906590;32;20020;-75
2022/09/30 22:17:25;;;;;;;1.80;1.42;;;17.30;85.40;;;;;;10871023;27;20351;-75
2022/09/30 22:23:27;;;;;;;4.53;2.55;;;17.20;85.40;;;;;;10868802;32;20417;-75
2022/09/30 22:29:31;;;;;;;5.15;2.83;;;17.20;85.30;;;;;;10868653;32;20016;-76
2022/09/30 22:41:55;;;;;;;2.72;2.17;;;17.30;85.20;;;;;;10867575;32;20054;-75
2022/09/30 22:47:57;;;;;;;2.58;2.28;;;17.20;85.30;;;;;;10867949;32;20062;-76
2022/09/30 22:54:02;;;;;;;2.70;2.05;;;17.10;85.20;;;;;;10867812;32;20058;-76
2022/09/30 23:00:05;;;;;;;4.50;2.90;;;17.20;85.30;;;;;;10867547;32;20344;-76
2022/09/30 23:06:07;;;;;;;2.92;2.10;;;17.20;85.20;;;;;;10867410;32;20028;-76
2022/09/30 23:12:10;;;;;;;3.50;2.58;;;17.20;85.20;;;;;;10867170;32;20024;-76
2022/09/30 23:18:13;;;;;;;4.03;2.33;;;17.20;85.10;;;;;;10867129;32;20047;-76
2022/09/30 23:24:15;;;;;;;3.10;1.90;;;17.20;85.10;;;;;;10850820;32;20547;-76
2022/09/30 23:30:17;;;;;;;2.53;1.62;;;17.20;85.00;;;;;;10866978;32;20019;-76
2022/09/30 23:36:25;;;;;;;2.60;1.65;;;17.10;85.00;;;;;;10853589;32;20045;-76
2022/09/30 23:42:30;;;;;;;2.60;1.60;;;17.10;85.00;;;;;;10867119;32;20040;-77
2022/09/30 23:48:39;;;;;;;1.52;1.42;;;17.10;85.00;;;;;;10866687;32;20304;-76
2022/09/30 23:54:41;;;;;;;2.17;1.77;;;17.00;85.00;;;;;;10870474;32;20027;-76
